Dickinson's Hourly Summary for Thursday, March 16, 2017
Hour Temp
(f)
RH
(%)
Solar Rad.
(MJ/m2)
Rainfall
(in)
Wind
(mph)
3/16/2017 12:00 AM 60 80 0 0 3.81
3/16/2017 1:00 AM 61 79 0 0 4.49
3/16/2017 2:00 AM 61 80 0 0 4.25
3/16/2017 3:00 AM 62 81 0 0 4.29
3/16/2017 4:00 AM 62 81 0 0 3.87
3/16/2017 5:00 AM 63 81 0 0 3.76
3/16/2017 6:00 AM 63 82 0 0 4.76
3/16/2017 7:00 AM 64 82 0 0 3.27
3/16/2017 8:00 AM 64 83 0.01 0 2.37
3/16/2017 9:00 AM 64 83 0.08 0 3.24
3/16/2017 10:00 AM 65 82 0.26 0 3.37
3/16/2017 11:00 AM 68 73 1.64 0 8.68
3/16/2017 12:00 PM 70 72 1.34 0 7.17
3/16/2017 1:00 PM 72 65 1.73 0 7.38
3/16/2017 2:00 PM 71 68 1.2 0 7.67
3/16/2017 3:00 PM 71 72 0.92 0 8.13
3/16/2017 4:00 PM 71 71 1.19 0 9.51
3/16/2017 5:00 PM 71 73 0.81 0 9.3
3/16/2017 6:00 PM 70 74 0.66 0 8.74
3/16/2017 7:00 PM 69 76 0.22 0 7.86
3/16/2017 8:00 PM 68 80 0.01 0 7.15
3/16/2017 9:00 PM 68 81 0 0 6.17
3/16/2017 10:00 PM 68 82 0 0 5.7
3/16/2017 11:00 PM 67 83 0 0 6.08
Data Summary 66 77 10.07 0.00 5.88